Time;durP1;ratioP1;P1;durP2;ratioP2;P2;SDS_P1;SDS_P2;PMS_P1;PMS_P2;Temp;Humidity;BMP_temperature;BMP_pressure;BME280_temperature;BME280_humidity;BME280_pressure;Samples;Min_cycle;Max_cycle;Signal;HPM_P1;HPM_P2
2021/06/10 00:00:20;;;;;;;12.80;10.23;;;20.70;99.90;;;;;;2062285;28;20034;-70
2021/06/10 00:01:21;;;;;;;12.10;10.90;;;20.70;99.90;;;;;;2063075;28;20034;-70
2021/06/10 00:02:22;;;;;;;10.35;9.40;;;20.70;99.90;;;;;;2062351;28;20100;-70
2021/06/10 00:03:23;;;;;;;11.73;10.70;;;20.60;99.90;;;;;;2061217;28;20411;-71
2021/06/10 00:04:23;;;;;;;10.88;9.88;;;20.70;99.90;;;;;;2058790;28;20093;-71
2021/06/10 00:05:24;;;;;;;9.38;8.48;;;20.60;99.90;;;;;;2062848;28;20034;-71
2021/06/10 00:06:24;;;;;;;11.23;10.23;;;20.60;99.90;;;;;;2063165;28;20027;-70
2021/06/10 00:07:25;;;;;;;10.30;9.25;;;20.60;99.90;;;;;;2063072;28;20136;-71
2021/06/10 00:08:25;;;;;;;10.05;8.93;;;20.60;99.90;;;;;;2062438;28;20033;-71
2021/06/10 00:09:26;;;;;;;7.78;7.18;;;20.50;99.90;;;;;;2065094;28;20029;-71
2021/06/10 00:10:29;;;;;;;9.57;8.75;;;20.50;99.90;;;;;;2065223;28;20023;-71
2021/06/10 00:11:30;;;;;;;11.93;10.18;;;20.60;99.90;;;;;;2060495;28;20386;-71
2021/06/10 00:12:30;;;;;;;11.90;10.70;;;20.50;99.90;;;;;;2058750;28;20368;-70
2021/06/10 00:13:31;;;;;;;11.38;10.23;;;20.50;99.90;;;;;;2062109;28;20054;-70
2021/06/10 00:14:32;;;;;;;9.07;8.38;;;20.50;99.90;;;;;;2062115;28;20034;-70
2021/06/10 00:15:34;;;;;;;10.23;9.32;;;20.50;99.90;;;;;;2062704;28;20039;-71
2021/06/10 00:16:35;;;;;;;11.02;9.88;;;20.50;99.90;;;;;;2062208;28;20027;-70
2021/06/10 00:17:36;;;;;;;10.52;9.40;;;20.40;99.90;;;;;;2062161;28;20069;-71
2021/06/10 00:18:36;;;;;;;11.38;10.30;;;20.40;99.90;;;;;;2061720;28;20029;-70
2021/06/10 00:19:37;;;;;;;9.43;8.68;;;20.40;99.90;;;;;;2062309;28;20117;-71
2021/06/10 00:20:39;;;;;;;10.85;9.80;;;20.40;99.90;;;;;;2062185;28;20553;-70
2021/06/10 00:21:41;;;;;;;12.23;11.07;;;20.40;99.90;;;;;;2061155;28;20038;-70
2021/06/10 00:22:41;;;;;;;13.13;11.93;;;20.40;99.90;;;;;;2062028;28;20028;-70
2021/06/10 00:23:42;;;;;;;14.63;12.98;;;20.40;99.90;;;;;;2061603;28;20040;-71
2021/06/10 00:24:42;;;;;;;18.17;12.38;;;20.40;99.90;;;;;;2062808;28;20080;-71
2021/06/10 00:25:44;;;;;;;12.13;11.02;;;20.30;99.90;;;;;;2062365;28;20037;-71
2021/06/10 00:26:44;;;;;;;12.43;11.40;;;20.30;99.90;;;;;;2063104;28;20065;-70
2021/06/10 00:27:45;;;;;;;11.57;10.57;;;20.30;99.90;;;;;;2062826;28;20037;-70
2021/06/10 00:28:45;;;;;;;10.85;9.73;;;20.30;99.90;;;;;;2062853;28;20160;-71
2021/06/10 00:29:49;;;;;;;13.65;12.38;;;20.30;99.90;;;;;;2062737;28;20045;-70
2021/06/10 00:30:50;;;;;;;13.60;12.32;;;20.20;99.90;;;;;;2061933;28;20022;-70
2021/06/10 00:31:51;;;;;;;13.48;11.18;;;20.20;99.90;;;;;;2054548;28;20023;-71
2021/06/10 00:32:52;;;;;;;10.73;9.80;;;20.20;99.90;;;;;;2054695;28;20030;-71
2021/06/10 00:33:52;;;;;;;12.73;11.68;;;20.20;99.90;;;;;;2054857;28;20041;-71
2021/06/10 00:34:53;;;;;;;10.95;9.95;;;20.20;99.90;;;;;;2054625;28;20054;-71
2021/06/10 00:35:53;;;;;;;11.82;10.77;;;20.10;99.90;;;;;;2056829;28;20030;-71
2021/06/10 00:36:56;;;;;;;10.15;8.95;;;20.10;99.90;;;;;;2061830;28;20018;-71
2021/06/10 00:37:59;;;;;;;9.85;8.68;;;20.10;99.90;;;;;;2062655;28;20022;-71
2021/06/10 00:39:00;;;;;;;10.45;9.55;;;20.10;99.90;;;;;;2062665;28;20022;-71
2021/06/10 00:40:01;;;;;;;12.88;11.70;;;20.10;99.90;;;;;;2062066;28;20026;-71
2021/06/10 00:41:02;;;;;;;13.18;11.98;;;20.10;99.90;;;;;;2061816;28;20040;-70
2021/06/10 00:42:04;;;;;;;11.57;10.57;;;20.00;99.90;;;;;;2062342;28;20037;-70
2021/06/10 00:43:04;;;;;;;11.55;10.45;;;20.00;99.90;;;;;;2059275;28;20609;-71
2021/06/10 00:44:08;;;;;;;12.07;11.07;;;20.00;99.90;;;;;;2059800;28;20035;-71
2021/06/10 00:45:12;;;;;;;10.32;9.52;;;20.00;99.90;;;;;;2054435;28;20031;-70
2021/06/10 00:46:12;;;;;;;13.18;10.13;;;20.00;99.90;;;;;;2054745;28;20091;-70
2021/06/10 00:47:13;;;;;;;13.18;11.80;;;19.90;99.90;;;;;;2054591;28;20046;-70
2021/06/10 00:48:14;;;;;;;14.48;13.07;;;19.90;99.90;;;;;;2060493;28;20041;-70
2021/06/10 00:49:14;;;;;;;14.30;12.88;;;19.90;99.90;;;;;;2062485;28;20069;-71
2021/06/10 00:50:24;;;;;;;14.38;12.93;;;19.90;99.90;;;;;;2062922;28;20034;-70
2021/06/10 00:51:26;;;;;;;15.65;14.35;;;19.90;99.90;;;;;;2062143;28;20039;-71
2021/06/10 00:52:26;;;;;;;10.00;9.10;;;19.90;99.90;;;;;;2057552;28;20394;-71
2021/06/10 00:53:27;;;;;;;14.98;13.55;;;19.90;99.90;;;;;;2054045;28;20662;-71
2021/06/10 00:54:27;;;;;;;12.82;11.73;;;19.80;99.90;;;;;;2054712;28;20015;-71
2021/06/10 00:55:28;;;;;;;15.20;12.95;;;19.80;99.90;;;;;;2057729;28;20466;-70
2021/06/10 00:56:29;;;;;;;12.65;11.40;;;19.80;99.90;;;;;;2062267;28;20466;-70
2021/06/10 00:57:30;;;;;;;10.35;9.45;;;19.80;99.90;;;;;;2061553;28;20939;-70
2021/06/10 00:58:30;;;;;;;11.57;10.55;;;19.80;99.90;;;;;;2053733;28;20121;-71
2021/06/10 00:59:31;;;;;;;15.90;14.50;;;19.70;99.90;;;;;;2053813;28;20058;-71
2021/06/10 01:00:32;;;;;;;13.18;12.00;;;19.70;99.90;;;;;;2059760;28;20034;-70
2021/06/10 01:01:32;;;;;;;10.80;9.90;;;19.70;99.90;;;;;;2061877;28;20438;-70
2021/06/10 01:02:33;;;;;;;11.10;10.00;;;19.70;99.90;;;;;;2054727;28;20042;-71
2021/06/10 01:03:37;;;;;;;11.80;10.60;;;19.70;99.90;;;;;;2058472;28;20022;-71
2021/06/10 01:04:37;;;;;;;14.25;12.98;;;19.70;99.90;;;;;;2062597;28;20458;-71
2021/06/10 01:05:40;;;;;;;13.32;12.10;;;19.70;99.90;;;;;;2061602;28;20449;-71
2021/06/10 01:07:07;;;;;;;15.77;14.20;;;19.60;99.90;;;;;;2062103;28;20019;-71
2021/06/10 01:08:33;;;;;;;15.85;14.35;;;19.60;99.90;;;;;;2055352;28;20022;-71
2021/06/10 01:09:40;;;;;;;10.80;9.48;;;19.60;99.90;;;;;;2062657;28;20092;-70
2021/06/10 01:10:52;;;;;;;12.95;11.75;;;19.50;99.90;;;;;;2062617;28;20030;-70
2021/06/10 01:11:59;;;;;;;12.00;11.00;;;19.50;99.90;;;;;;2059030;28;20027;-71
2021/06/10 01:13:17;;;;;;;15.38;13.95;;;19.50;99.90;;;;;;2062632;28;20470;-71
2021/06/10 01:14:36;;;;;;;12.98;11.60;;;19.50;99.90;;;;;;2062493;28;20107;-70
2021/06/10 01:15:40;;;;;;;15.48;13.85;;;19.50;99.90;;;;;;2062484;28;20093;-70
2021/06/10 01:16:44;;;;;;;12.82;11.73;;;19.40;99.90;;;;;;2062632;28;20042;-70
2021/06/10 01:17:47;;;;;;;16.75;15.18;;;19.40;99.90;;;;;;2063057;28;20029;-70
2021/06/10 01:18:48;;;;;;;16.83;15.43;;;19.40;99.90;;;;;;2062833;28;20107;-71
2021/06/10 01:20:08;;;;;;;16.55;14.95;;;19.40;99.90;;;;;;2062438;28;20034;-70
2021/06/10 01:21:09;;;;;;;12.50;11.45;;;19.40;99.90;;;;;;2061393;28;20068;-70
2021/06/10 01:22:25;;;;;;;11.75;10.65;;;19.40;99.90;;;;;;2053977;28;20035;-70
2021/06/10 01:23:52;;;;;;;10.52;9.63;;;19.30;99.90;;;;;;2057665;28;20026;-70
2021/06/10 01:25:23;;;;;;;19.45;15.63;;;19.30;99.90;;;;;;2062429;28;20458;-71
2021/06/10 01:26:44;;;;;;;18.73;17.08;;;19.30;99.90;;;;;;2061622;28;20042;-71
2021/06/10 01:27:50;;;;;;;18.80;17.00;;;19.30;99.90;;;;;;2061471;28;20355;-71
2021/06/10 01:28:52;;;;;;;16.95;15.35;;;19.20;99.90;;;;;;2062529;28;20087;-70
2021/06/10 01:29:59;;;;;;;14.55;13.25;;;19.20;99.90;;;;;;2062399;28;20023;-70
2021/06/10 01:31:03;;;;;;;17.05;15.32;;;19.20;99.90;;;;;;2061538;28;20663;-70
2021/06/10 01:32:05;;;;;;;15.55;12.63;;;19.20;99.90;;;;;;2056655;28;20035;-70
2021/06/10 01:33:12;;;;;;;14.45;13.10;;;19.20;99.90;;;;;;2059807;28;20030;-71
2021/06/10 01:34:13;;;;;;;15.93;14.48;;;19.20;99.90;;;;;;2061781;28;20030;-70
2021/06/10 01:35:17;;;;;;;18.38;16.58;;;19.20;99.90;;;;;;2062521;28;20026;-70
2021/06/10 01:36:34;;;;;;;21.52;17.30;;;19.20;99.90;;;;;;2057182;28;20027;-70
2021/06/10 01:37:36;;;;;;;19.55;17.65;;;19.20;99.90;;;;;;2054253;28;20027;-70
2021/06/10 01:38:43;;;;;;;17.13;15.57;;;19.10;99.90;;;;;;2054467;28;20019;-70
2021/06/10 01:39:45;;;;;;;16.92;15.32;;;19.10;99.90;;;;;;2054346;28;20140;-70
2021/06/10 01:40:47;;;;;;;21.13;18.58;;;19.10;99.90;;;;;;2054226;28;20474;-71
2021/06/10 01:41:49;;;;;;;19.98;18.00;;;19.10;99.90;;;;;;2058609;28;20045;-70
2021/06/10 01:42:51;;;;;;;20.98;19.15;;;19.10;99.90;;;;;;2062036;28;20030;-71
2021/06/10 01:43:53;;;;;;;22.02;19.88;;;19.10;99.90;;;;;;2061320;28;20087;-71
2021/06/10 01:44:56;;;;;;;18.65;16.73;;;19.10;99.90;;;;;;2059860;28;20053;-71
2021/06/10 01:45:58;;;;;;;18.88;17.17;;;19.10;99.90;;;;;;2062119;28;20114;-71
2021/06/10 01:46:58;;;;;;;17.63;15.88;;;19.10;99.90;;;;;;2061686;28;20095;-71
2021/06/10 01:47:59;;;;;;;19.27;17.48;;;19.10;99.90;;;;;;2061609;28;20063;-70
2021/06/10 01:49:01;;;;;;;24.75;17.70;;;19.10;99.90;;;;;;2062113;28;20030;-71
2021/06/10 01:50:02;;;;;;;21.95;19.88;;;19.10;99.90;;;;;;2062332;28;20107;-71
2021/06/10 01:51:04;;;;;;;21.27;19.38;;;19.10;99.90;;;;;;2061623;28;20099;-71
2021/06/10 01:52:06;;;;;;;18.98;17.27;;;19.10;99.90;;;;;;2059249;28;20038;-71
2021/06/10 01:53:14;;;;;;;20.98;18.92;;;19.10;99.90;;;;;;2054344;28;20035;-70
2021/06/10 01:54:16;;;;;;;19.00;17.30;;;19.10;99.90;;;;;;2060691;28;20607;-70
2021/06/10 01:55:24;;;;;;;18.70;16.98;;;19.00;99.90;;;;;;2062704;28;20030;-71
2021/06/10 01:56:26;;;;;;;20.75;18.88;;;19.00;99.90;;;;;;2062716;28;20358;-71
2021/06/10 01:57:28;;;;;;;20.63;18.67;;;19.00;99.90;;;;;;2062303;28;20033;-70
2021/06/10 01:58:30;;;;;;;18.42;16.13;;;19.00;99.90;;;;;;2062289;28;20415;-70
2021/06/10 01:59:32;;;;;;;17.90;16.33;;;19.00;99.90;;;;;;2062047;28;20027;-70
2021/06/10 02:00:33;;;;;;;18.17;16.40;;;19.00;99.90;;;;;;2062320;28;20626;-70
2021/06/10 02:01:35;;;;;;;21.40;19.40;;;19.00;99.90;;;;;;2062665;28;20038;-70
2021/06/10 02:02:37;;;;;;;19.15;17.27;;;19.00;99.90;;;;;;2055213;28;20030;-71
2021/06/10 02:03:38;;;;;;;17.33;15.35;;;19.00;99.90;;;;;;2059482;28;20023;-71
2021/06/10 02:04:40;;;;;;;17.25;15.55;;;19.00;99.90;;;;;;2063539;28;20036;-70
2021/06/10 02:05:41;;;;;;;17.10;15.60;;;19.00;99.90;;;;;;2063769;28;20022;-71
2021/06/10 02:06:43;;;;;;;18.63;16.40;;;19.00;99.90;;;;;;2065922;28;20381;-71
2021/06/10 02:07:45;;;;;;;19.58;17.73;;;18.90;99.90;;;;;;2063551;28;20398;-70
2021/06/10 02:08:47;;;;;;;24.42;22.08;;;19.00;99.90;;;;;;2063762;28;20723;-70
2021/06/10 02:09:48;;;;;;;23.58;21.42;;;18.90;99.90;;;;;;2064664;28;20026;-70
2021/06/10 02:10:52;;;;;;;18.95;17.23;;;18.90;99.90;;;;;;2064925;28;20018;-70
2021/06/10 02:11:53;;;;;;;20.20;18.30;;;18.90;99.90;;;;;;2064093;28;20026;-70
2021/06/10 02:12:55;;;;;;;18.67;16.98;;;18.90;99.90;;;;;;2065017;28;20026;-70
2021/06/10 02:13:56;;;;;;;16.05;14.48;;;18.90;99.90;;;;;;2064634;28;20680;-70
2021/06/10 02:14:57;;;;;;;18.42;16.70;;;18.90;99.90;;;;;;2064632;28;20022;-71
2021/06/10 02:16:02;;;;;;;23.08;20.90;;;18.90;99.90;;;;;;2065090;28;20038;-71
2021/06/10 02:17:04;;;;;;;21.73;19.73;;;18.90;99.90;;;;;;2065020;28;20033;-70
2021/06/10 02:18:05;;;;;;;18.65;16.92;;;18.90;99.90;;;;;;2064769;28;20019;-70
2021/06/10 02:19:05;;;;;;;23.77;21.55;;;18.80;99.90;;;;;;2065143;28;20025;-70
2021/06/10 02:20:07;;;;;;;24.50;22.15;;;18.80;99.90;;;;;;2064926;28;20075;-70
2021/06/10 02:21:11;;;;;;;25.02;22.67;;;18.80;99.90;;;;;;2064576;28;20045;-70
2021/06/10 02:22:12;;;;;;;17.92;16.38;;;18.80;99.90;;;;;;2063997;28;20030;-70
2021/06/10 02:23:13;;;;;;;24.80;22.38;;;18.80;99.90;;;;;;2060406;28;20027;-70
2021/06/10 02:24:15;;;;;;;26.70;24.10;;;18.80;99.90;;;;;;2056847;28;20113;-70
2021/06/10 02:25:16;;;;;;;24.45;22.20;;;18.80;99.90;;;;;;2056858;28;20454;-70
2021/06/10 02:26:18;;;;;;;22.85;20.67;;;18.70;99.90;;;;;;2056465;28;20398;-70
2021/06/10 02:27:18;;;;;;;20.88;18.73;;;18.70;99.90;;;;;;2057072;28;20031;-70
2021/06/10 02:28:19;;;;;;;18.27;16.65;;;18.70;99.90;;;;;;2056717;28;20026;-70
2021/06/10 02:29:19;;;;;;;20.98;18.98;;;18.70;99.90;;;;;;2072142;28;20037;-70
2021/06/10 02:30:20;;;;;;;25.58;23.08;;;18.70;99.90;;;;;;2072172;28;20545;-70
2021/06/10 02:31:21;;;;;;;22.35;20.15;;;18.70;99.90;;;;;;2060883;28;20496;-70
2021/06/10 02:32:21;;;;;;;20.33;18.23;;;18.70;99.90;;;;;;2063868;28;20061;-70
2021/06/10 02:33:22;;;;;;;23.13;20.92;;;18.70;99.90;;;;;;2056966;28;20042;-70
2021/06/10 02:34:23;;;;;;;20.90;18.83;;;18.70;99.90;;;;;;2059721;28;20023;-70
2021/06/10 02:35:24;;;;;;;25.95;23.48;;;18.70;99.90;;;;;;2064204;28;20527;-70
2021/06/10 02:36:25;;;;;;;22.05;19.90;;;18.70;99.90;;;;;;2064030;28;20031;-70
2021/06/10 02:37:27;;;;;;;20.58;18.50;;;18.70;99.90;;;;;;2058457;28;20061;-70
2021/06/10 02:38:30;;;;;;;23.17;21.08;;;18.60;99.90;;;;;;2065052;28;20031;-70
2021/06/10 02:39:35;;;;;;;24.63;22.42;;;18.60;99.90;;;;;;2064629;28;20063;-70
2021/06/10 02:40:41;;;;;;;21.10;18.95;;;18.60;99.90;;;;;;2064891;28;20121;-70
2021/06/10 02:41:48;;;;;;;25.40;22.90;;;18.60;99.90;;;;;;2064116;28;20041;-70
2021/06/10 02:42:49;;;;;;;20.02;18.13;;;18.60;99.90;;;;;;2059689;28;20019;-70
2021/06/10 02:43:51;;;;;;;20.85;18.85;;;18.60;99.90;;;;;;2060971;28;20034;-70
2021/06/10 02:44:54;;;;;;;26.35;23.92;;;18.60;99.90;;;;;;2064647;28;20030;-70
2021/06/10 02:45:55;;;;;;;27.05;24.55;;;18.60;99.90;;;;;;2064812;28;20038;-70
2021/06/10 02:46:56;;;;;;;21.92;19.83;;;18.60;99.90;;;;;;2064603;28;20065;-70
2021/06/10 02:47:59;;;;;;;18.55;16.70;;;18.60;99.90;;;;;;2064889;28;20362;-70
2021/06/10 02:49:01;;;;;;;22.63;20.33;;;18.50;99.90;;;;;;2064400;28;20039;-70
2021/06/10 02:50:04;;;;;;;19.17;17.30;;;18.50;99.90;;;;;;2064851;28;20026;-71
2021/06/10 02:51:06;;;;;;;22.15;19.88;;;18.50;99.90;;;;;;2063936;28;20033;-70
2021/06/10 02:52:07;;;;;;;26.52;24.15;;;18.50;99.90;;;;;;2061776;28;20390;-71
2021/06/10 02:53:14;;;;;;;25.13;22.70;;;18.50;99.90;;;;;;2056775;28;20037;-70
2021/06/10 02:54:18;;;;;;;24.63;22.33;;;18.50;99.90;;;;;;2062824;28;20167;-70
2021/06/10 02:55:20;;;;;;;21.10;18.85;;;18.50;99.90;;;;;;2064669;28;20083;-70
2021/06/10 02:56:22;;;;;;;23.08;20.80;;;18.50;99.90;;;;;;2064911;28;20072;-70
2021/06/10 02:57:25;;;;;;;17.90;16.30;;;18.50;99.90;;;;;;2064440;28;20576;-70
2021/06/10 02:58:27;;;;;;;20.95;18.95;;;18.50;99.90;;;;;;2064038;28;20109;-70
2021/06/10 02:59:30;;;;;;;22.80;20.80;;;18.40;99.90;;;;;;2063731;28;20757;-70
2021/06/10 03:00:32;;;;;;;25.33;22.60;;;18.40;99.90;;;;;;2061193;28;20038;-70
2021/06/10 03:01:38;;;;;;;18.67;16.98;;;18.40;99.90;;;;;;2063254;28;20023;-70
2021/06/10 03:02:39;;;;;;;21.80;19.70;;;18.40;99.90;;;;;;2055790;28;20417;-71
2021/06/10 03:03:42;;;;;;;24.30;22.05;;;18.40;99.90;;;;;;2059191;28;20072;-70
2021/06/10 03:04:44;;;;;;;25.65;23.20;;;18.40;99.90;;;;;;2063827;28;20022;-70
2021/06/10 03:05:46;;;;;;;26.33;23.85;;;18.40;99.90;;;;;;2063628;28;20030;-70
2021/06/10 03:06:47;;;;;;;26.00;23.42;;;18.30;99.90;;;;;;2063765;28;20046;-70
2021/06/10 03:07:49;;;;;;;27.23;24.35;;;18.30;99.90;;;;;;2063636;28;20026;-70
2021/06/10 03:08:51;;;;;;;23.70;21.58;;;18.30;99.90;;;;;;2063676;28;20105;-70
2021/06/10 03:09:53;;;;;;;25.35;23.02;;;18.30;99.90;;;;;;2063257;28;20356;-70
2021/06/10 03:10:58;;;;;;;19.73;17.77;;;18.30;99.90;;;;;;2062689;28;20482;-70
2021/06/10 03:11:59;;;;;;;21.73;19.73;;;18.30;99.90;;;;;;2062409;28;20087;-70
2021/06/10 03:13:04;;;;;;;19.10;17.38;;;18.30;99.90;;;;;;2063319;28;20402;-71
2021/06/10 03:14:08;;;;;;;24.25;22.10;;;18.20;99.90;;;;;;2063301;28;20101;-71
2021/06/10 03:15:10;;;;;;;26.42;23.27;;;18.20;99.90;;;;;;2058266;28;20454;-70
2021/06/10 03:16:12;;;;;;;24.50;22.15;;;18.20;99.90;;;;;;2070383;28;20554;-70
2021/06/10 03:17:15;;;;;;;27.55;24.85;;;18.20;99.90;;;;;;2070887;28;20026;-70
2021/06/10 03:18:17;;;;;;;23.02;20.75;;;18.20;99.90;;;;;;2055342;28;20023;-70
2021/06/10 03:19:18;;;;;;;23.25;21.05;;;18.20;99.90;;;;;;2055431;28;20114;-70
2021/06/10 03:20:19;;;;;;;23.92;21.52;;;18.20;99.90;;;;;;2055073;28;20029;-70
2021/06/10 03:21:21;;;;;;;25.35;22.95;;;18.20;99.90;;;;;;2055233;28;20030;-70
2021/06/10 03:22:22;;;;;;;26.13;23.52;;;18.20;99.90;;;;;;2061551;28;20026;-70
2021/06/10 03:23:23;;;;;;;24.27;21.88;;;18.10;99.90;;;;;;2057829;28;20068;-70
2021/06/10 03:24:24;;;;;;;23.05;20.85;;;18.10;99.90;;;;;;2055407;28;20035;-70
2021/06/10 03:25:26;;;;;;;23.90;21.60;;;18.10;99.90;;;;;;2054814;28;20469;-70
2021/06/10 03:26:27;;;;;;;24.83;22.35;;;18.10;99.90;;;;;;2055047;28;20387;-70
2021/06/10 03:27:31;;;;;;;27.73;25.05;;;18.10;99.90;;;;;;2055034;28;20046;-70
2021/06/10 03:28:33;;;;;;;23.88;21.58;;;18.10;99.90;;;;;;2055234;28;20023;-70
2021/06/10 03:29:34;;;;;;;24.60;21.92;;;18.00;99.90;;;;;;2055026;28;20041;-70
2021/06/10 03:30:36;;;;;;;18.98;17.17;;;18.00;99.90;;;;;;2055349;28;20109;-70
2021/06/10 03:31:37;;;;;;;25.55;23.20;;;18.00;99.90;;;;;;2061178;28;20416;-70
2021/06/10 03:32:38;;;;;;;29.55;26.73;;;18.00;99.90;;;;;;2062434;28;20644;-70
2021/06/10 03:33:39;;;;;;;27.85;25.17;;;18.00;99.90;;;;;;2060099;28;20026;-70
2021/06/10 03:34:41;;;;;;;26.83;24.25;;;18.00;99.90;;;;;;2063093;28;20098;-70
2021/06/10 03:35:44;;;;;;;23.00;20.85;;;18.00;99.90;;;;;;2062437;28;20037;-70
2021/06/10 03:36:45;;;;;;;25.95;23.52;;;18.00;99.90;;;;;;2054998;28;20030;-71
2021/06/10 03:37:46;;;;;;;23.33;21.08;;;18.00;99.90;;;;;;2055016;28;20029;-70
2021/06/10 03:38:49;;;;;;;19.35;17.55;;;18.00;99.90;;;;;;2055224;28;20028;-70
2021/06/10 03:39:51;;;;;;;22.90;20.80;;;17.90;99.90;;;;;;2055111;28;20109;-70
2021/06/10 03:40:56;;;;;;;27.52;24.98;;;17.90;99.90;;;;;;2055241;28;20101;-70
2021/06/10 03:41:58;;;;;;;23.25;21.10;;;17.90;99.90;;;;;;2059241;28;20042;-70
2021/06/10 03:43:00;;;;;;;22.02;20.00;;;17.90;99.90;;;;;;2063169;28;20023;-70
2021/06/10 03:44:02;;;;;;;21.55;19.52;;;17.90;99.90;;;;;;2063099;28;20030;-71
2021/06/10 03:45:04;;;;;;;18.15;16.38;;;17.90;99.90;;;;;;2063286;28;20022;-70
2021/06/10 03:46:09;;;;;;;19.85;17.85;;;17.90;99.90;;;;;;2063055;28;20414;-70
2021/06/10 03:47:13;;;;;;;24.75;22.45;;;17.90;99.90;;;;;;2063129;28;20030;-70
2021/06/10 03:48:14;;;;;;;27.27;24.70;;;17.90;99.90;;;;;;2062796;28;20038;-70
2021/06/10 03:49:15;;;;;;;23.98;21.58;;;17.90;99.90;;;;;;2063133;28;20042;-70
2021/06/10 03:50:16;;;;;;;24.10;21.90;;;17.90;99.90;;;;;;2063067;28;20151;-70
2021/06/10 03:51:19;;;;;;;26.40;23.90;;;17.90;99.90;;;;;;2062942;28;20029;-71
2021/06/10 03:52:25;;;;;;;26.63;24.02;;;17.90;99.90;;;;;;2058217;28;20030;-71
2021/06/10 03:53:26;;;;;;;22.13;20.02;;;17.90;99.90;;;;;;2055198;28;20031;-70
2021/06/10 03:54:26;;;;;;;24.73;22.42;;;17.80;99.90;;;;;;2054979;28;20035;-71
2021/06/10 03:55:27;;;;;;;26.40;23.88;;;17.90;99.90;;;;;;2058125;28;20029;-70
2021/06/10 03:56:27;;;;;;;25.00;22.65;;;17.80;99.90;;;;;;2062856;28;20072;-70
2021/06/10 03:57:28;;;;;;;27.00;24.45;;;17.90;99.90;;;;;;2063256;28;20030;-70
2021/06/10 03:58:29;;;;;;;25.42;23.02;;;17.80;99.90;;;;;;2063195;28;20031;-70
2021/06/10 03:59:29;;;;;;;25.77;23.23;;;17.90;99.90;;;;;;2063073;28;20427;-70
2021/06/10 04:00:30;;;;;;;26.15;23.67;;;17.80;99.90;;;;;;2063029;28;20036;-70
2021/06/10 04:01:30;;;;;;;27.38;24.85;;;17.90;99.90;;;;;;2062698;28;20458;-70
2021/06/10 04:02:31;;;;;;;24.60;22.42;;;17.90;99.90;;;;;;2054829;28;20422;-70
2021/06/10 04:03:31;;;;;;;23.75;21.55;;;17.90;99.90;;;;;;2060432;28;20030;-71
2021/06/10 04:04:32;;;;;;;24.60;22.40;;;17.90;99.90;;;;;;2066783;28;20021;-70
2021/06/10 04:05:35;;;;;;;21.38;19.25;;;18.00;99.90;;;;;;2064803;28;20023;-70
2021/06/10 04:06:37;;;;;;;23.75;21.60;;;18.00;99.90;;;;;;2063076;28;20026;-71
2021/06/10 04:07:38;;;;;;;24.42;22.17;;;18.00;99.90;;;;;;2063016;28;20037;-71
2021/06/10 04:08:38;;;;;;;23.00;20.98;;;18.00;99.90;;;;;;2062947;28;20101;-71
2021/06/10 04:09:39;;;;;;;24.80;22.35;;;18.00;99.90;;;;;;2063065;28;20023;-70
2021/06/10 04:10:40;;;;;;;23.95;21.65;;;18.10;99.90;;;;;;2062695;28;20394;-70
2021/06/10 04:11:41;;;;;;;26.45;23.95;;;18.20;99.90;;;;;;2061739;28;20363;-70
2021/06/10 04:12:42;;;;;;;26.35;23.65;;;18.20;99.90;;;;;;2062858;28;20026;-70
2021/06/10 04:13:42;;;;;;;27.20;24.77;;;18.40;99.90;;;;;;2062945;28;20027;-70
2021/06/10 04:14:43;;;;;;;26.67;24.15;;;18.40;99.90;;;;;;2062851;28;20063;-70
2021/06/10 04:15:44;;;;;;;26.35;23.70;;;18.50;99.90;;;;;;2063089;28;20053;-71
2021/06/10 04:16:45;;;;;;;26.77;24.30;;;18.70;99.90;;;;;;2063084;28;20114;-71
2021/06/10 04:17:46;;;;;;;25.80;23.38;;;18.80;99.90;;;;;;2063102;28;20492;-71
2021/06/10 04:18:46;;;;;;;22.27;20.20;;;18.90;99.90;;;;;;2063010;28;20546;-71
2021/06/10 04:19:47;;;;;;;23.35;21.10;;;19.10;99.90;;;;;;2062802;28;20026;-71
2021/06/10 04:20:49;;;;;;;24.63;22.20;;;19.20;99.90;;;;;;2062808;28;20057;-71
2021/06/10 04:21:50;;;;;;;23.40;21.08;;;19.40;99.90;;;;;;2054697;28;20030;-71
2021/06/10 04:22:51;;;;;;;21.38;19.20;;;19.50;99.90;;;;;;2054004;28;20114;-71
2021/06/10 04:23:52;;;;;;;23.08;20.80;;;19.60;99.90;;;;;;2055148;28;20404;-71
2021/06/10 04:24:52;;;;;;;22.40;20.15;;;19.80;99.90;;;;;;2054642;28;20493;-71
2021/06/10 04:25:53;;;;;;;25.02;22.52;;;19.90;99.90;;;;;;2054708;28;20385;-71
2021/06/10 04:26:53;;;;;;;27.10;24.48;;;20.00;99.90;;;;;;2054776;28;20516;-71
2021/06/10 04:27:54;;;;;;;27.50;23.23;;;20.00;99.90;;;;;;2058169;28;20027;-71
2021/06/10 04:28:55;;;;;;;26.98;24.27;;;20.00;99.90;;;;;;2058333;28;20091;-71
2021/06/10 04:29:55;;;;;;;24.08;21.67;;;20.00;99.90;;;;;;2072372;28;20030;-71
2021/06/10 04:30:57;;;;;;;25.85;23.33;;;20.00;99.90;;;;;;2076322;28;20389;-71
2021/06/10 04:31:58;;;;;;;24.27;21.88;;;20.00;99.90;;;;;;2068150;28;20110;-71
2021/06/10 04:32:58;;;;;;;24.45;21.90;;;19.90;99.90;;;;;;2066241;28;20038;-71
2021/06/10 04:33:59;;;;;;;21.63;19.50;;;19.90;99.90;;;;;;2061435;28;20026;-71
2021/06/10 04:35:02;;;;;;;21.17;19.23;;;19.90;99.90;;;;;;2063043;28;20030;-71
2021/06/10 04:36:04;;;;;;;21.35;19.27;;;19.90;99.90;;;;;;2067017;28;20097;-71
2021/06/10 04:37:04;;;;;;;20.75;18.88;;;19.90;99.90;;;;;;2070992;28;20030;-71
2021/06/10 04:38:06;;;;;;;21.52;19.48;;;19.90;99.90;;;;;;2064000;28;20034;-71
2021/06/10 04:39:07;;;;;;;19.67;17.95;;;19.90;99.90;;;;;;2062771;28;20023;-71
2021/06/10 04:40:09;;;;;;;18.25;16.55;;;19.90;99.90;;;;;;2062004;28;20077;-71
2021/06/10 04:41:09;;;;;;;22.23;20.13;;;19.90;99.90;;;;;;2085599;28;20488;-71
2021/06/10 04:42:10;;;;;;;19.58;17.88;;;20.00;99.90;;;;;;2069379;28;20127;-71
2021/06/10 04:43:12;;;;;;;20.60;18.60;;;20.00;99.90;;;;;;2074972;28;20032;-71
2021/06/10 04:44:13;;;;;;;22.27;20.17;;;20.00;99.90;;;;;;2071900;28;20076;-71
2021/06/10 04:45:14;;;;;;;20.35;18.55;;;20.00;99.90;;;;;;2056983;28;20109;-71
2021/06/10 04:46:15;;;;;;;20.63;18.67;;;20.10;99.90;;;;;;2057518;28;21157;-71
2021/06/10 04:47:17;;;;;;;20.20;18.08;;;20.10;99.90;;;;;;2058173;28;20041;-71
2021/06/10 04:48:18;;;;;;;18.95;17.10;;;20.20;99.90;;;;;;2057493;28;20088;-71
2021/06/10 04:49:18;;;;;;;20.83;18.73;;;20.20;99.90;;;;;;2058129;28;20536;-71
2021/06/10 04:50:19;;;;;;;19.00;17.25;;;20.30;99.90;;;;;;2055236;28;20018;-71
2021/06/10 04:51:19;;;;;;;16.33;14.77;;;20.40;99.90;;;;;;2057720;28;20546;-71
2021/06/10 04:52:20;;;;;;;18.38;16.13;;;20.40;99.90;;;;;;2056992;28;20050;-71
2021/06/10 04:53:22;;;;;;;20.45;17.27;;;20.50;99.90;;;;;;2056912;28;20077;-71
2021/06/10 04:54:22;;;;;;;17.77;15.85;;;20.50;99.90;;;;;;2056636;28;20022;-71
2021/06/10 04:55:23;;;;;;;16.48;14.65;;;20.60;99.90;;;;;;2055551;28;20030;-71
2021/06/10 04:56:24;;;;;;;17.55;15.85;;;20.70;99.90;;;;;;2055467;28;20343;-71
2021/06/10 04:57:25;;;;;;;18.17;16.38;;;20.70;99.90;;;;;;2062063;28;20048;-71
2021/06/10 04:58:25;;;;;;;18.23;16.52;;;20.80;99.90;;;;;;2063186;28;20108;-71
2021/06/10 04:59:26;;;;;;;18.75;16.45;;;20.80;99.90;;;;;;2056516;28;20743;-71
2021/06/10 05:00:27;;;;;;;20.80;16.42;;;20.90;99.90;;;;;;2057442;28;20022;-71
2021/06/10 05:01:27;;;;;;;21.10;16.17;;;21.00;99.90;;;;;;2062993;28;20368;-71
2021/06/10 05:02:28;;;;;;;17.38;15.73;;;21.10;99.90;;;;;;2055706;28;20031;-71
2021/06/10 05:03:28;;;;;;;15.82;14.25;;;21.20;99.90;;;;;;2060847;28;20041;-71
2021/06/10 05:04:29;;;;;;;17.48;14.95;;;21.20;99.90;;;;;;2061286;28;20033;-71
2021/06/10 05:05:30;;;;;;;15.82;14.43;;;21.30;99.90;;;;;;2070848;28;20727;-71
2021/06/10 05:06:30;;;;;;;17.40;15.30;;;21.40;99.90;;;;;;2067618;28;20351;-71
2021/06/10 05:07:31;;;;;;;17.02;14.68;;;21.50;99.90;;;;;;2059206;28;20034;-71
2021/06/10 05:08:32;;;;;;;17.00;15.40;;;21.50;99.90;;;;;;2070928;28;20020;-71
2021/06/10 05:09:33;;;;;;;17.83;15.85;;;21.60;99.90;;;;;;2059192;28;20864;-71
2021/06/10 05:10:34;;;;;;;15.27;13.68;;;21.70;99.90;;;;;;2061303;28;20401;-71
2021/06/10 05:11:34;;;;;;;14.70;13.23;;;21.80;99.90;;;;;;2066990;28;20035;-71
2021/06/10 05:12:36;;;;;;;14.93;13.30;;;21.80;99.90;;;;;;2061836;28;20487;-71
2021/06/10 05:13:37;;;;;;;16.35;13.18;;;21.90;99.90;;;;;;2069295;28;20023;-71
2021/06/10 05:14:37;;;;;;;15.45;13.95;;;22.00;99.90;;;;;;2070775;28;20516;-71
2021/06/10 05:15:38;;;;;;;15.98;14.38;;;22.10;99.90;;;;;;2071426;28;20080;-71
2021/06/10 05:16:39;;;;;;;17.77;13.15;;;22.20;99.90;;;;;;2063026;28;20373;-71